createdAt,value
2023-01-17T00:01:34.284Z,4.50
2023-01-17T00:05:58.974Z,4.56
2023-01-17T00:10:07.265Z,4.62
2023-01-17T00:14:08.783Z,4.60
2023-01-17T00:18:10.345Z,4.65
2023-01-17T00:22:40.042Z,4.64
2023-01-17T00:27:01.702Z,4.65
2023-01-17T00:31:04.798Z,4.61
2023-01-17T00:35:06.956Z,4.65
2023-01-17T00:39:09.301Z,4.60
2023-01-17T00:43:30.960Z,4.64
2023-01-17T00:47:53.084Z,4.56
2023-01-17T00:52:13.328Z,4.57
2023-01-17T00:56:33.678Z,4.60
2023-01-17T01:00:54.312Z,4.50
2023-01-17T01:05:14.552Z,4.52
2023-01-17T01:09:34.615Z,4.34
2023-01-17T01:13:57.671Z,4.27
2023-01-17T01:18:27.222Z,4.08
2023-01-17T01:22:47.684Z,3.98
2023-01-17T01:27:07.827Z,3.89
2023-01-17T01:31:27.921Z,3.86
2023-01-17T01:35:29.593Z,3.89
2023-01-17T01:39:31.103Z,3.84
2023-01-17T01:43:51.153Z,3.84
2023-01-17T01:47:58.185Z,3.86
2023-01-17T01:52:02.456Z,3.86
2023-01-17T01:56:07.743Z,3.87
2023-01-17T02:00:16.519Z,3.88
2023-01-17T02:04:19.437Z,3.89
2023-01-17T02:08:22.874Z,3.84
2023-01-17T02:12:25.181Z,3.84
2023-01-17T02:16:45.133Z,3.80
2023-01-17T02:21:08.310Z,3.73
2023-01-17T02:25:18.653Z,3.62
2023-01-17T02:29:42.568Z,3.63
2023-01-17T02:34:05.178Z,3.65
2023-01-17T02:38:17.183Z,3.65
2023-01-17T02:42:26.480Z,3.65
2023-01-17T02:46:28.147Z,3.68
2023-01-17T02:51:08.956Z,3.69
2023-01-17T02:55:23.166Z,3.64
2023-01-17T02:59:54.030Z,3.58
2023-01-17T03:04:06.776Z,3.59
2023-01-17T03:08:09.740Z,3.56
2023-01-17T03:12:12.633Z,3.53
2023-01-17T03:16:18.904Z,3.48
2023-01-17T03:20:22.548Z,3.45
2023-01-17T03:24:24.344Z,3.42
2023-01-17T03:28:25.972Z,3.39
2023-01-17T03:32:28.148Z,3.36
2023-01-17T03:36:29.822Z,3.28
2023-01-17T03:40:31.453Z,3.25
2023-01-17T03:44:34.277Z,3.14
2023-01-17T03:48:35.866Z,3.02
2023-01-17T03:52:37.442Z,2.93
2023-01-17T03:56:38.979Z,2.83
2023-01-17T04:00:40.507Z,2.80
2023-01-17T04:04:42.065Z,2.70
2023-01-17T04:08:43.659Z,2.57
2023-01-17T04:12:45.346Z,2.46
2023-01-17T04:16:46.974Z,2.35
2023-01-17T04:20:48.672Z,2.24
2023-01-17T04:24:50.309Z,2.15
2023-01-17T04:28:52.149Z,2.10
2023-01-17T04:32:54.332Z,2.06
2023-01-17T04:36:55.863Z,2.04
2023-01-17T04:40:57.565Z,2.17
2023-01-17T04:44:59.114Z,2.28
2023-01-17T04:49:00.772Z,2.43
2023-01-17T04:53:02.919Z,2.57
2023-01-17T04:57:04.462Z,2.67
2023-01-17T05:01:08.308Z,2.78
2023-01-17T05:05:10.697Z,2.87
2023-01-17T05:09:12.486Z,2.95
2023-01-17T05:13:14.334Z,3.02
2023-01-17T05:17:15.965Z,3.06
2023-01-17T05:21:17.491Z,3.12
2023-01-17T05:25:19.160Z,3.12
2023-01-17T05:29:21.868Z,3.13
2023-01-17T05:33:23.431Z,3.11
2023-01-17T05:37:24.961Z,3.11
2023-01-17T05:41:26.539Z,3.16
2023-01-17T05:45:29.550Z,3.19
2023-01-17T05:49:31.180Z,3.18
2023-01-17T05:53:33.015Z,3.20
2023-01-17T05:57:37.803Z,3.18
2023-01-17T06:01:41.348Z,3.13
2023-01-17T06:05:43.288Z,3.17
2023-01-17T06:09:44.996Z,3.17
2023-01-17T06:13:48.831Z,3.16
2023-01-17T06:17:50.536Z,3.17
2023-01-17T06:21:52.077Z,3.17
2023-01-17T06:25:53.829Z,3.21
2023-01-17T06:29:55.423Z,3.23
2023-01-17T06:33:57.097Z,3.30
2023-01-17T06:38:00.790Z,3.32
2023-01-17T06:42:02.386Z,3.30
2023-01-17T06:46:04.126Z,3.23
2023-01-17T06:50:11.028Z,3.13
2023-01-17T06:54:13.192Z,3.06
2023-01-17T06:58:15.186Z,3.02
2023-01-17T07:02:16.770Z,3.00
2023-01-17T07:06:19.110Z,2.99
2023-01-17T07:10:21.768Z,2.92
2023-01-17T07:14:23.291Z,2.83
2023-01-17T07:18:25.132Z,2.73
2023-01-17T07:22:28.189Z,2.67
2023-01-17T07:26:30.555Z,2.62
2023-01-17T07:30:33.160Z,2.57
2023-01-17T07:34:34.721Z,2.52
2023-01-17T07:38:36.658Z,2.50
2023-01-17T07:42:38.204Z,2.46
2023-01-17T07:46:40.751Z,2.48
2023-01-17T07:50:43.590Z,2.48
2023-01-17T07:54:45.201Z,2.48
2023-01-17T07:58:48.634Z,2.40
2023-01-17T08:02:50.339Z,2.33
2023-01-17T08:06:55.103Z,2.28
2023-01-17T08:10:58.214Z,2.24
2023-01-17T08:14:59.871Z,2.20
2023-01-17T08:19:02.452Z,2.15
2023-01-17T08:23:06.135Z,2.14
2023-01-17T08:27:09.116Z,2.15
2023-01-17T08:31:10.919Z,2.16
2023-01-17T08:35:12.694Z,2.23
2023-01-17T08:39:14.966Z,2.31
2023-01-17T08:43:17.034Z,2.40
2023-01-17T08:47:18.696Z,2.46
2023-01-17T08:51:20.257Z,2.56
2023-01-17T08:55:22.579Z,2.68
2023-01-17T08:59:25.052Z,2.82
2023-01-17T09:03:26.600Z,2.92
2023-01-17T09:07:28.577Z,3.04
2023-01-17T09:11:30.148Z,3.16
2023-01-17T09:15:32.040Z,3.28
2023-01-17T09:19:35.476Z,3.40
2023-01-17T09:23:37.414Z,3.50
2023-01-17T09:27:39.644Z,3.58
2023-01-17T09:31:42.307Z,3.69
2023-01-17T09:35:45.142Z,3.78
2023-01-17T09:39:46.660Z,3.90
2023-01-17T09:43:57.906Z,4.03
2023-01-17T09:48:03.508Z,4.10
2023-01-17T09:52:08.571Z,4.10
2023-01-17T09:56:15.909Z,4.13
2023-01-17T10:00:39.320Z,4.26
2023-01-17T10:05:04.117Z,4.58
2023-01-17T10:09:43.447Z,4.89
2023-01-17T10:13:53.643Z,5.13
2023-01-17T10:18:29.501Z,5.21
2023-01-17T10:22:32.049Z,5.18
2023-01-17T10:26:36.666Z,5.17
2023-01-17T10:30:43.714Z,5.25
2023-01-17T10:34:51.475Z,5.52
2023-01-17T10:39:00.796Z,5.83
2023-01-17T10:43:25.697Z,6.11
2023-01-17T10:47:34.646Z,6.14
2023-01-17T10:51:59.991Z,6.05
2023-01-17T10:56:02.696Z,6.03
2023-01-17T11:00:22.635Z,6.04
2023-01-17T11:04:36.631Z,6.07
2023-01-17T11:08:56.456Z,5.99
2023-01-17T11:12:58.270Z,5.87
2023-01-17T11:17:02.251Z,5.88
2023-01-17T11:21:20.793Z,5.94
2023-01-17T11:25:33.990Z,6.00
2023-01-17T11:29:40.612Z,6.02
2023-01-17T11:33:56.436Z,6.00
2023-01-17T11:38:19.853Z,6.11
2023-01-17T11:42:38.625Z,6.31
2023-01-17T11:46:40.237Z,6.46
2023-01-17T11:50:47.193Z,6.42
2023-01-17T11:54:51.581Z,6.39
2023-01-17T11:59:07.362Z,6.60
2023-01-17T12:03:29.665Z,6.93
2023-01-17T12:07:42.050Z,7.01
2023-01-17T12:12:13.640Z,7.17
2023-01-17T12:16:48.852Z,7.19
2023-01-17T12:21:18.019Z,7.08
2023-01-17T12:25:37.819Z,6.85
2023-01-17T12:29:58.921Z,7.00
2023-01-17T12:34:28.607Z,7.38
2023-01-17T12:38:39.835Z,7.61
2023-01-17T12:42:48.863Z,7.69
2023-01-17T12:47:03.459Z,7.78
2023-01-17T12:51:30.952Z,7.82
2023-01-17T12:55:54.857Z,7.94
2023-01-17T13:00:12.550Z,7.94
2023-01-17T13:04:24.995Z,8.09
2023-01-17T13:08:48.406Z,7.94
2023-01-17T13:12:51.806Z,7.91
2023-01-17T13:16:59.326Z,7.92
2023-01-17T13:21:07.563Z,7.82
2023-01-17T13:25:41.437Z,7.78
2023-01-17T13:30:03.461Z,7.83
2023-01-17T13:34:23.676Z,7.87
2023-01-17T13:39:00.601Z,7.69
2023-01-17T13:43:05.363Z,7.62
2023-01-17T13:47:11.022Z,7.49
2023-01-17T13:51:12.910Z,7.29
2023-01-17T13:55:45.014Z,7.07
2023-01-17T13:59:46.658Z,6.90
2023-01-17T14:03:51.512Z,6.74
2023-01-17T14:08:06.554Z,6.57
2023-01-17T14:12:12.380Z,6.49
2023-01-17T14:16:27.631Z,6.42
2023-01-17T14:20:45.065Z,6.30
2023-01-17T14:25:02.817Z,6.18
2023-01-17T14:29:42.599Z,6.01
2023-01-17T14:33:44.125Z,5.83
2023-01-17T14:37:51.374Z,5.64
2023-01-17T14:41:53.284Z,5.48
2023-01-17T14:46:00.461Z,5.36
2023-01-17T14:50:23.543Z,5.21
2023-01-17T14:54:26.555Z,5.09
2023-01-17T14:58:42.221Z,4.98
2023-01-17T15:02:44.735Z,4.88
2023-01-17T15:06:48.147Z,4.79
2023-01-17T15:10:56.038Z,4.72
2023-01-17T15:14:59.489Z,4.64
2023-01-17T15:19:02.269Z,4.54
2023-01-17T15:23:04.329Z,4.43
2023-01-17T15:27:06.564Z,4.32
2023-01-17T15:31:40.936Z,4.21
2023-01-17T15:35:42.536Z,4.10
2023-01-17T15:39:44.162Z,3.99
2023-01-17T15:43:46.400Z,3.93
2023-01-17T15:47:49.018Z,3.95
2023-01-17T15:51:52.422Z,3.82
2023-01-17T15:55:54.487Z,3.70
2023-01-17T16:00:19.198Z,3.63
2023-01-17T16:04:46.751Z,3.54
2023-01-17T16:08:52.400Z,3.46
2023-01-17T16:12:56.198Z,3.42
2023-01-17T16:16:59.855Z,3.41
2023-01-17T16:21:14.736Z,3.38
2023-01-17T16:25:21.653Z,3.38
2023-01-17T16:29:23.634Z,3.36
2023-01-17T16:33:25.542Z,3.35
2023-01-17T16:37:27.077Z,3.30
2023-01-17T16:41:28.736Z,3.24
2023-01-17T16:45:30.487Z,3.15
2023-01-17T16:49:33.469Z,3.09
2023-01-17T16:53:35.352Z,3.02
2023-01-17T16:57:36.940Z,2.95
2023-01-17T17:01:38.713Z,2.92
2023-01-17T17:05:40.302Z,2.87
2023-01-17T17:09:42.108Z,2.84
2023-01-17T17:13:48.917Z,2.79
2023-01-17T17:17:51.254Z,2.76
2023-01-17T17:21:52.967Z,2.72
2023-01-17T17:25:57.768Z,2.70
2023-01-17T17:29:59.402Z,2.65
2023-01-17T17:34:02.264Z,2.59
2023-01-17T17:38:06.637Z,2.54
2023-01-17T17:42:08.635Z,2.48
2023-01-17T17:46:10.497Z,2.44
2023-01-17T17:50:13.228Z,2.39
2023-01-17T17:54:17.384Z,2.37
2023-01-17T17:58:19.794Z,2.37
2023-01-17T18:02:21.430Z,2.38
2023-01-17T18:06:23.791Z,2.37
2023-01-17T18:10:33.970Z,2.38
2023-01-17T18:14:36.203Z,2.39
2023-01-17T18:18:40.271Z,2.36
2023-01-17T18:22:41.912Z,2.38
2023-01-17T18:26:50.060Z,2.36
2023-01-17T18:30:51.637Z,2.34
2023-01-17T18:34:53.221Z,2.32
2023-01-17T18:38:55.313Z,2.32
2023-01-17T18:42:57.578Z,2.30
2023-01-17T18:47:04.539Z,2.28
2023-01-17T18:51:09.260Z,2.27
2023-01-17T18:55:10.971Z,2.27
2023-01-17T18:59:14.898Z,2.27
2023-01-17T19:03:25.528Z,2.25
2023-01-17T19:07:29.705Z,2.20
2023-01-17T19:11:31.554Z,2.19
2023-01-17T19:15:33.744Z,2.16
2023-01-17T19:19:35.380Z,2.14
2023-01-17T19:23:37.886Z,2.17
2023-01-17T19:27:39.707Z,2.20
2023-01-17T19:31:43.443Z,2.32
2023-01-17T19:35:46.030Z,2.43
2023-01-17T19:39:47.664Z,2.50
2023-01-17T19:43:54.392Z,2.58
2023-01-17T19:47:56.317Z,2.68
2023-01-17T19:51:58.045Z,2.80
2023-01-17T19:55:59.843Z,2.85
2023-01-17T20:00:02.357Z,2.91
2023-01-17T20:04:14.139Z,2.91
2023-01-17T20:08:15.829Z,2.93
2023-01-17T20:12:17.436Z,2.94
2023-01-17T20:16:19.275Z,2.93
2023-01-17T20:20:24.362Z,2.94
2023-01-17T20:24:26.610Z,2.94
2023-01-17T20:28:29.672Z,2.94
2023-01-17T20:32:31.333Z,2.89
2023-01-17T20:36:33.224Z,2.82
2023-01-17T20:40:36.542Z,2.73
2023-01-17T20:44:38.141Z,2.65
2023-01-17T20:48:47.163Z,2.55
2023-01-17T20:52:48.701Z,2.43
2023-01-17T20:56:50.682Z,2.35
2023-01-17T21:00:54.929Z,2.22
2023-01-17T21:04:58.795Z,2.15
2023-01-17T21:09:00.879Z,2.11
2023-01-17T21:13:02.582Z,2.07
2023-01-17T21:17:04.256Z,2.03
2023-01-17T21:21:08.126Z,2.00
2023-01-17T21:25:10.074Z,1.94
2023-01-17T21:29:12.696Z,1.94
2023-01-17T21:33:14.251Z,1.88
2023-01-17T21:37:15.784Z,1.86
2023-01-17T21:41:18.199Z,1.85
2023-01-17T21:45:20.272Z,1.79
2023-01-17T21:49:21.890Z,1.80
2023-01-17T21:53:23.446Z,1.80
2023-01-17T21:57:43.464Z,1.80
2023-01-17T22:01:45.064Z,1.81
2023-01-17T22:05:46.707Z,1.80
2023-01-17T22:09:48.253Z,1.82
2023-01-17T22:13:50.371Z,1.83
2023-01-17T22:17:52.235Z,1.87
2023-01-17T22:21:54.168Z,1.86
2023-01-17T22:26:01.662Z,1.86
2023-01-17T22:30:03.373Z,1.89
2023-01-17T22:34:05.688Z,1.85
2023-01-17T22:38:07.214Z,1.80
2023-01-17T22:42:08.828Z,1.76
2023-01-17T22:46:14.660Z,1.74
2023-01-17T22:50:16.478Z,1.74
2023-01-17T22:54:19.553Z,1.73
2023-01-17T22:58:21.107Z,1.73
2023-01-17T23:02:22.947Z,1.75
2023-01-17T23:06:36.098Z,1.75
2023-01-17T23:10:56.287Z,1.77
2023-01-17T23:15:16.479Z,1.76
2023-01-17T23:19:24.265Z,1.77
2023-01-17T23:23:25.814Z,1.76
2023-01-17T23:27:49.721Z,1.76
2023-01-17T23:31:51.257Z,1.73
2023-01-17T23:35:53.482Z,1.73
2023-01-17T23:39:55.077Z,1.70
2023-01-17T23:43:58.256Z,1.70
2023-01-17T23:47:59.825Z,1.68
2023-01-17T23:52:01.376Z,1.66
2023-01-17T23:56:18.515Z,1.63
